Time;durP1;ratioP1;P1;durP2;ratioP2;P2;SDS_P1;SDS_P2;PMS_P1;PMS_P2;Temp;Humidity;BMP_temperature;BMP_pressure;BME280_temperature;BME280_humidity;BME280_pressure;Samples;Min_cycle;Max_cycle;Signal;HPM_P1;HPM_P2
2022/10/01 00:02:03;;;;;;;0.50;0.50;;;;;;;20.22;32.20;100173.75;5052199;28;20060;-91
2022/10/01 00:04:28;;;;;;;0.50;0.50;;;;;;;20.20;32.26;100178.63;5049682;28;20139;-91
2022/10/01 00:06:54;;;;;;;0.60;0.60;;;;;;;20.13;32.20;100164.44;5045158;28;20044;-91
2022/10/01 00:09:22;;;;;;;0.40;0.40;;;;;;;20.16;32.00;100174.78;5055046;28;20020;-91
2022/10/01 00:11:47;;;;;;;0.40;0.40;;;;;;;20.08;32.04;100166.03;5047608;28;20477;-90
2022/10/01 00:14:16;;;;;;;0.93;0.70;;;;;;;20.04;32.06;100153.22;5048705;28;20077;-90
2022/10/01 00:16:41;;;;;;;1.42;0.50;;;;;;;20.06;32.26;100160.06;5033435;28;20024;-90
2022/10/01 00:19:11;;;;;;;1.02;0.47;;;;;;;20.04;32.00;100161.38;5033444;28;20536;-91
2022/10/01 00:21:37;;;;;;;0.50;0.50;;;;;;;19.89;31.97;100164.75;5033198;28;20035;-90
2022/10/01 00:24:04;;;;;;;0.50;0.50;;;;;;;19.92;32.09;100164.25;5061424;28;20024;-90
2022/10/01 00:26:31;;;;;;;0.60;0.60;;;;;;;19.93;32.12;100165.88;5048213;28;20129;-91
2022/10/01 00:28:59;;;;;;;0.50;0.50;;;;;;;19.92;32.12;100169.69;5056216;28;20055;-90
2022/10/01 00:31:25;;;;;;;0.50;0.50;;;;;;;19.91;32.22;100170.75;5047758;28;20714;-90
2022/10/01 00:33:59;;;;;;;1.17;0.63;;;;;;;19.93;32.31;100165.88;5032291;28;20032;-90
2022/10/01 00:36:25;;;;;;;0.50;0.50;;;;;;;19.84;32.32;100162.00;5033736;28;20027;-90
2022/10/01 00:38:51;;;;;;;0.77;0.60;;;;;;;19.84;32.44;100170.13;5064989;28;20041;-90
2022/10/01 00:41:17;;;;;;;0.60;0.60;;;;;;;19.79;32.42;100160.03;5032170;28;20115;-90
2022/10/01 00:43:55;;;;;;;0.50;0.50;;;;;;;19.83;32.33;100172.03;5048648;28;20020;-90
2022/10/01 00:46:25;;;;;;;0.47;0.47;;;;;;;19.84;32.55;100172.84;5032413;28;20111;-90
2022/10/01 00:49:00;;;;;;;0.52;0.52;;;;;;;19.83;32.66;100176.59;5064192;28;20028;-91
2022/10/01 00:51:31;;;;;;;1.77;0.50;;;;;;;19.86;32.44;100165.25;5049758;28;20027;-90
2022/10/01 00:54:01;;;;;;;0.65;0.65;;;;;;;20.07;32.15;100161.69;5041951;28;20359;-91
2022/10/01 00:56:27;;;;;;;0.47;0.47;;;;;;;20.37;31.87;100165.78;5050027;28;20041;-90
2022/10/01 00:58:54;;;;;;;0.40;0.40;;;;;;;20.58;31.81;100166.75;5031533;28;20060;-90
2022/10/01 01:01:20;;;;;;;0.77;0.57;;;;;;;20.73;31.50;100152.50;5033573;28;20520;-90
2022/10/01 01:03:46;;;;;;;0.70;0.60;;;;;;;20.78;31.44;100149.84;5063922;28;20123;-91
2022/10/01 01:06:11;;;;;;;0.60;0.47;;;;;;;20.79;31.43;100165.03;5048822;28;20505;-91
2022/10/01 01:08:38;;;;;;;0.60;0.60;;;;;;;20.55;31.38;100139.31;5047186;28;20029;-91
2022/10/01 01:11:28;;;;;;;1.20;0.50;;;;;;;20.64;31.73;100170.34;5060970;28;20107;-91
2022/10/01 01:14:21;;;;;;;0.40;0.40;;;;;;;20.55;31.59;100169.16;5051695;28;20040;-90
2022/10/01 01:16:59;;;;;;;0.65;0.40;;;;;;;20.40;32.08;100167.97;5034047;28;20029;-90
2022/10/01 01:19:49;;;;;;;0.50;0.50;;;;;;;20.38;32.09;100178.25;5048804;28;20048;-91
2022/10/01 01:22:15;;;;;;;0.55;0.55;;;;;;;20.31;32.02;100171.41;5065646;28;20024;-90
2022/10/01 01:24:47;;;;;;;0.70;0.70;;;;;;;20.30;31.77;100186.03;5026048;28;20139;-90
2022/10/01 01:27:44;;;;;;;0.75;0.60;;;;;;;20.24;32.19;100187.88;5098811;28;20044;-91
2022/10/01 01:30:11;;;;;;;0.50;0.50;;;;;;;20.16;31.68;100185.63;5060990;28;20123;-91
2022/10/01 01:33:14;;;;;;;0.77;0.50;;;;;;;20.16;32.05;100191.06;5047138;28;20090;-90
2022/10/01 01:35:45;;;;;;;0.57;0.50;;;;;;;20.00;32.07;100179.25;5021704;28;20035;-90
2022/10/01 01:38:16;;;;;;;0.80;0.70;;;;;;;20.08;32.23;100190.44;5062081;28;20033;-90
2022/10/01 01:40:43;;;;;;;0.57;0.57;;;;;;;20.01;31.96;100189.84;5051015;28;20035;-90
2022/10/01 01:43:20;;;;;;;0.85;0.40;;;;;;;19.99;31.87;100189.28;5036733;28;20020;-90
2022/10/01 01:45:47;;;;;;;0.40;0.40;;;;;;;19.99;32.09;100193.84;5060238;28;20036;-91
2022/10/01 01:48:12;;;;;;;0.70;0.52;;;;;;;19.91;32.09;100184.31;5048042;28;20415;-90
2022/10/01 01:50:43;;;;;;;0.50;0.50;;;;;;;19.88;32.18;100184.81;5036474;28;20112;-90
2022/10/01 01:53:10;;;;;;;0.73;0.50;;;;;;;19.82;32.01;100180.41;5061155;28;20025;-90
2022/10/01 01:55:35;;;;;;;2.25;0.52;;;;;;;19.88;32.35;100191.03;5045143;28;20021;-90
2022/10/01 01:58:01;;;;;;;0.52;0.52;;;;;;;19.83;32.44;100188.28;5034912;28;20029;-90
2022/10/01 02:00:27;;;;;;;0.60;0.60;;;;;;;19.91;32.32;100195.16;5045663;28;20492;-91
2022/10/01 02:02:53;;;;;;;1.75;0.47;;;;;;;20.06;32.33;100187.19;5068370;28;20626;-90
2022/10/01 02:05:21;;;;;;;0.93;0.50;;;;;;;20.40;31.88;100197.81;5034718;28;20473;-90
2022/10/01 02:08:05;;;;;;;0.40;0.40;;;;;;;20.66;31.27;100194.53;5053123;28;20722;-90
2022/10/01 02:10:46;;;;;;;0.55;0.55;;;;;;;20.97;31.07;100201.84;5051902;28;20044;-90
2022/10/01 02:13:43;;;;;;;0.43;0.43;;;;;;;20.99;30.93;100193.44;5064887;28;20029;-90
2022/10/01 02:16:13;;;;;;;0.40;0.40;;;;;;;20.89;30.92;100187.94;5069021;28;20029;-91
2022/10/01 02:18:59;;;;;;;0.50;0.50;;;;;;;20.89;31.17;100201.50;5051010;28;20075;-91
2022/10/01 02:22:00;;;;;;;0.47;0.47;;;;;;;20.75;31.44;100201.94;5068517;28;20090;-90
2022/10/01 02:24:39;;;;;;;0.40;0.40;;;;;;;20.56;31.62;100192.53;5063152;28;20032;-90
2022/10/01 02:27:19;;;;;;;0.60;0.60;;;;;;;20.50;31.61;100201.69;5049644;28;20509;-90
2022/10/01 02:29:45;;;;;;;1.02;0.50;;;;;;;20.43;31.66;100200.00;5062265;28;20062;-90
2022/10/01 02:32:11;;;;;;;0.50;0.50;;;;;;;20.23;31.59;100170.81;5035677;28;20469;-91
2022/10/01 02:34:37;;;;;;;0.82;0.40;;;;;;;20.32;31.69;100195.56;5056995;28;20025;-91
2022/10/01 02:37:03;;;;;;;0.47;0.47;;;;;;;20.30;31.49;100192.31;5054091;28;20059;-90
2022/10/01 02:39:28;;;;;;;0.75;0.35;;;;;;;20.24;31.81;100191.41;5052320;28;20029;-90
2022/10/01 02:41:54;;;;;;;0.50;0.50;;;;;;;20.23;31.67;100202.53;5063645;28;20028;-90
2022/10/01 02:44:22;;;;;;;0.50;0.50;;;;;;;20.09;31.75;100191.25;5033834;28;20025;-91
2022/10/01 02:46:56;;;;;;;0.68;0.63;;;;;;;20.10;31.67;100197.53;5049513;28;20484;-91
2022/10/01 02:49:23;;;;;;;0.50;0.50;;;;;;;20.10;31.66;100202.94;5063009;28;20078;-91
2022/10/01 02:52:21;;;;;;;0.40;0.40;;;;;;;20.09;31.76;100204.81;5054634;28;20047;-90
2022/10/01 02:54:46;;;;;;;0.60;0.60;;;;;;;20.03;31.77;100203.97;5066067;28;20393;-90
2022/10/01 02:57:21;;;;;;;0.50;0.50;;;;;;;20.02;31.83;100194.19;5068666;28;20013;-90
2022/10/01 02:59:48;;;;;;;0.60;0.60;;;;;;;19.96;31.86;100194.41;5045181;28;20032;-90
2022/10/01 03:02:14;;;;;;;0.60;0.60;;;;;;;20.05;32.04;100195.56;5067920;28;20258;-90
2022/10/01 03:04:39;;;;;;;1.30;0.50;;;;;;;20.25;31.73;100189.53;5066076;28;20040;-91
2022/10/01 03:07:05;;;;;;;0.50;0.50;;;;;;;20.55;31.27;100191.69;5050312;28;20024;-89
2022/10/01 03:09:31;;;;;;;0.35;0.35;;;;;;;20.81;31.00;100190.03;5035030;28;20028;-90
2022/10/01 03:11:58;;;;;;;0.40;0.40;;;;;;;21.04;30.57;100193.47;5039047;28;20129;-90
2022/10/01 03:14:23;;;;;;;0.43;0.43;;;;;;;21.15;30.59;100194.34;5049343;28;20129;-90
2022/10/01 03:16:50;;;;;;;0.98;0.57;;;;;;;21.12;30.73;100195.66;5063909;28;20029;-90
2022/10/01 03:19:16;;;;;;;0.93;0.60;;;;;;;21.03;30.68;100191.81;5065536;28;20040;-90
2022/10/01 03:21:41;;;;;;;0.50;0.50;;;;;;;20.93;30.79;100191.75;5039159;28;20491;-90
2022/10/01 03:24:07;;;;;;;0.75;0.55;;;;;;;20.80;30.84;100185.69;5031908;28;20029;-90
2022/10/01 03:26:33;;;;;;;1.27;0.60;;;;;;;20.67;31.20;100186.13;5034168;28;20383;-90
2022/10/01 03:28:59;;;;;;;0.40;0.40;;;;;;;20.63;31.13;100187.72;5032271;28;20027;-91
2022/10/01 03:31:24;;;;;;;0.50;0.40;;;;;;;20.56;31.15;100178.97;5066931;28;20488;-90
2022/10/01 03:33:50;;;;;;;4.60;0.50;;;;;;;20.55;31.10;100188.97;5034122;28;20021;-91
2022/10/01 03:36:16;;;;;;;0.47;0.47;;;;;;;20.38;31.17;100172.81;5061129;28;20024;-90
2022/10/01 03:38:41;;;;;;;0.57;0.50;;;;;;;20.37;31.25;100189.34;5034489;28;20036;-90
2022/10/01 03:41:07;;;;;;;0.43;0.43;;;;;;;20.30;31.27;100184.16;5050367;28;20469;-90
2022/10/01 03:43:33;;;;;;;0.40;0.40;;;;;;;20.17;31.36;100174.53;5032780;28;20049;-89
2022/10/01 03:46:00;;;;;;;0.50;0.50;;;;;;;20.13;31.01;100175.28;5051150;28;20115;-90
2022/10/01 03:48:26;;;;;;;1.13;0.70;;;;;;;20.09;31.23;100180.41;5061695;28;20105;-90
2022/10/01 03:50:59;;;;;;;1.23;0.50;;;;;;;20.17;31.29;100193.53;5034413;28;20055;-90
2022/10/01 03:53:26;;;;;;;0.40;0.40;;;;;;;20.08;31.51;100195.88;5036924;28;20461;-90
2022/10/01 03:55:52;;;;;;;0.35;0.35;;;;;;;20.20;31.35;100203.06;5056906;28;20342;-89
2022/10/01 03:58:18;;;;;;;0.77;0.40;;;;;;;20.37;31.09;100192.06;5049600;28;20028;-90
2022/10/01 04:00:47;;;;;;;0.60;0.50;;;;;;;20.76;30.73;100189.16;5065911;28;20140;-90
2022/10/01 04:03:16;;;;;;;1.88;0.40;;;;;;;20.99;30.49;100194.22;5049258;28;20484;-90
2022/10/01 04:05:42;;;;;;;0.40;0.40;;;;;;;21.23;30.26;100196.56;5033347;28;20107;-90
2022/10/01 04:08:08;;;;;;;0.60;0.40;;;;;;;21.35;30.08;100193.59;5033939;28;20020;-90
2022/10/01 04:10:34;;;;;;;0.43;0.43;;;;;;;21.32;30.06;100186.00;5062265;28;20031;-90
2022/10/01 04:13:00;;;;;;;0.50;0.50;;;;;;;21.27;30.16;100188.69;5047690;28;20082;-90
2022/10/01 04:15:25;;;;;;;0.60;0.50;;;;;;;21.14;30.15;100195.41;5050830;28;20062;-90
2022/10/01 04:17:53;;;;;;;0.93;0.32;;;;;;;20.93;30.45;100172.72;5046271;28;20489;-90
2022/10/01 04:20:19;;;;;;;0.90;0.57;;;;;;;20.81;30.59;100176.44;5067224;28;20036;-90
2022/10/01 04:22:45;;;;;;;0.40;0.40;;;;;;;20.76;30.53;100181.84;5030909;28;20059;-90
2022/10/01 04:25:11;;;;;;;2.17;0.63;;;;;;;20.70;30.68;100188.31;5045868;28;20032;-90
2022/10/01 04:27:40;;;;;;;0.35;0.35;;;;;;;20.67;30.72;100207.84;5048804;28;20040;-90
2022/10/01 04:30:07;;;;;;;1.80;0.43;;;;;;;20.56;30.89;100197.97;5033180;28;20040;-90
2022/10/01 04:32:33;;;;;;;0.50;0.50;;;;;;;20.41;30.79;100198.63;5048849;28;20033;-90
2022/10/01 04:34:59;;;;;;;0.60;0.50;;;;;;;20.44;30.87;100206.28;5031583;28;20501;-90
2022/10/01 04:37:26;;;;;;;0.70;0.50;;;;;;;20.30;30.70;100192.31;5047775;28;20060;-90
2022/10/01 04:39:52;;;;;;;0.55;0.55;;;;;;;20.30;30.79;100205.03;5066858;28;20116;-90
2022/10/01 04:42:17;;;;;;;1.48;0.55;;;;;;;20.33;30.80;100207.25;5032595;28;20119;-89
2022/10/01 04:44:43;;;;;;;0.50;0.50;;;;;;;20.29;31.06;100206.13;5065080;28;20035;-89
2022/10/01 04:47:09;;;;;;;0.70;0.55;;;;;;;20.24;31.21;100193.31;5030087;28;20389;-90
2022/10/01 04:49:34;;;;;;;0.50;0.50;;;;;;;20.38;30.88;100183.66;5062948;28;20130;-90
2022/10/01 04:52:00;;;;;;;0.55;0.55;;;;;;;20.70;30.59;100196.47;5036650;28;20036;-90
2022/10/01 04:54:26;;;;;;;2.10;0.57;;;;;;;21.02;30.18;100203.75;5043992;28;20052;-90
2022/10/01 04:56:51;;;;;;;0.40;0.40;;;;;;;21.28;29.97;100195.75;5047262;28;20373;-90
2022/10/01 04:59:18;;;;;;;0.52;0.52;;;;;;;21.33;29.85;100199.31;5032696;28;20120;-90
2022/10/01 05:01:46;;;;;;;0.40;0.40;;;;;;;21.34;30.04;100200.97;5065099;28;20032;-90
2022/10/01 05:04:12;;;;;;;1.83;0.45;;;;;;;21.28;30.02;100206.63;5033455;28;20028;-90
2022/10/01 05:06:37;;;;;;;0.50;0.50;;;;;;;21.07;30.25;100197.53;5032767;28;20027;-90
2022/10/01 05:09:03;;;;;;;0.50;0.50;;;;;;;21.04;30.40;100207.03;5050734;28;20021;-90
2022/10/01 05:11:29;;;;;;;0.50;0.50;;;;;;;20.88;30.39;100202.56;5036521;28;20037;-90
2022/10/01 05:13:55;;;;;;;0.98;0.68;;;;;;;20.80;30.71;100199.25;5068943;28;20037;-90
2022/10/01 05:16:21;;;;;;;0.55;0.35;;;;;;;20.79;30.50;100208.47;5053769;28;20389;-90
2022/10/01 05:18:46;;;;;;;1.05;0.47;;;;;;;20.64;30.30;100189.34;5036452;28;20044;-90
2022/10/01 05:21:14;;;;;;;0.40;0.40;;;;;;;20.63;30.51;100201.31;5068461;28;20119;-90
2022/10/01 05:23:40;;;;;;;0.60;0.50;;;;;;;20.49;30.62;100194.63;5050084;28;20016;-90
2022/10/01 05:26:06;;;;;;;1.75;0.50;;;;;;;20.44;30.43;100187.28;5036822;28;20051;-90
2022/10/01 05:28:34;;;;;;;0.88;0.50;;;;;;;20.39;30.49;100196.19;5053858;28;20028;-90
2022/10/01 05:31:03;;;;;;;1.35;0.60;;;;;;;20.38;30.74;100191.00;5035868;28;20032;-90
2022/10/01 05:33:29;;;;;;;1.38;0.52;;;;;;;20.31;30.87;100198.53;5053479;28;20020;-90
2022/10/01 05:35:56;;;;;;;0.95;0.52;;;;;;;20.30;30.98;100189.59;5049908;28;20029;-90
2022/10/01 05:38:21;;;;;;;0.50;0.50;;;;;;;20.43;30.82;100200.00;5053866;28;20497;-90
2022/10/01 05:40:47;;;;;;;0.43;0.40;;;;;;;20.64;30.46;100186.63;5070272;28;20040;-90
2022/10/01 05:43:13;;;;;;;0.50;0.50;;;;;;;20.82;30.29;100183.53;5049479;28;20150;-90
2022/10/01 05:45:38;;;;;;;0.40;0.40;;;;;;;21.12;30.01;100184.78;5036879;28;20016;-90
2022/10/01 05:48:05;;;;;;;0.43;0.43;;;;;;;21.31;29.72;100195.22;5046258;28;20060;-90
2022/10/01 05:50:32;;;;;;;0.63;0.50;;;;;;;21.34;29.82;100189.28;5067997;28;20393;-91
2022/10/01 05:52:59;;;;;;;1.63;0.50;;;;;;;21.31;29.74;100190.59;5044920;28;20028;-90
2022/10/01 05:55:24;;;;;;;1.02;0.52;;;;;;;21.18;30.02;100191.91;5063794;28;20484;-90
2022/10/01 05:57:54;;;;;;;0.80;0.40;;;;;;;21.08;30.15;100197.28;5036206;28;20029;-91
2022/10/01 06:00:21;;;;;;;0.50;0.50;;;;;;;20.86;30.41;100180.28;5055359;28;20469;-91
2022/10/01 06:02:51;;;;;;;0.57;0.57;;;;;;;20.85;30.46;100197.66;5036671;28;20056;-91
2022/10/01 06:05:17;;;;;;;0.40;0.40;;;;;;;20.81;30.59;100203.59;5066762;28;20029;-91
2022/10/01 06:07:43;;;;;;;1.40;0.40;;;;;;;20.76;30.37;100200.03;5032146;28;20082;-91
2022/10/01 06:10:09;;;;;;;0.40;0.40;;;;;;;20.62;30.08;100183.38;5052835;28;20024;-91
2022/10/01 06:12:35;;;;;;;0.63;0.50;;;;;;;20.53;30.32;100179.47;5035155;28;20374;-91
2022/10/01 06:15:00;;;;;;;0.60;0.60;;;;;;;20.53;30.39;100193.84;5035869;28;20123;-91
2022/10/01 06:17:26;;;;;;;0.43;0.43;;;;;;;20.45;30.52;100184.31;5050701;28;20022;-91
2022/10/01 06:19:51;;;;;;;0.75;0.50;;;;;;;20.48;30.48;100201.13;5035911;28;20043;-90
2022/10/01 06:22:17;;;;;;;0.30;0.30;;;;;;;20.40;30.47;100202.41;5059110;28;20062;-90
2022/10/01 06:24:43;;;;;;;1.20;0.52;;;;;;;20.23;30.54;100181.66;5035199;28;20088;-91
2022/10/01 06:27:10;;;;;;;1.02;0.50;;;;;;;20.31;30.70;100204.78;5033640;28;20132;-90
2022/10/01 06:29:36;;;;;;;0.40;0.40;;;;;;;20.28;30.58;100194.44;5049644;28;20039;-91
2022/10/01 06:32:02;;;;;;;1.70;0.60;;;;;;;20.27;30.66;100209.09;5034221;28;20016;-90
2022/10/01 06:34:28;;;;;;;0.57;0.57;;;;;;;20.11;30.91;100188.28;5052866;28;20031;-89
2022/10/01 06:36:54;;;;;;;0.60;0.55;;;;;;;20.20;31.02;100201.16;5034951;28;20089;-90
2022/10/01 06:39:19;;;;;;;1.05;0.60;;;;;;;20.41;30.81;100187.78;5034989;28;20043;-91
2022/10/01 06:41:46;;;;;;;0.60;0.47;;;;;;;20.68;30.55;100195.91;5049540;28;20436;-91
2022/10/01 06:44:12;;;;;;;0.63;0.40;;;;;;;20.95;30.17;100193.09;5049640;28;20029;-91
2022/10/01 06:46:38;;;;;;;1.52;0.47;;;;;;;21.16;30.06;100199.50;5052679;28;20035;-90
2022/10/01 06:49:03;;;;;;;0.43;0.43;;;;;;;21.28;29.87;100188.41;5033359;28;20472;-90
2022/10/01 06:54:13;;;;;;;0.65;0.60;;;;;;;21.23;30.07;100209.31;5051172;28;20043;-91
2022/10/01 06:56:39;;;;;;;0.60;0.40;;;;;;;21.11;30.12;100213.06;5035721;28;20032;-91
2022/10/01 06:59:04;;;;;;;0.43;0.43;;;;;;;20.90;30.24;100201.22;5063216;28;20020;-91
2022/10/01 07:01:31;;;;;;;1.48;0.50;;;;;;;20.81;30.57;100203.59;5033690;28;20488;-90
2022/10/01 07:03:58;;;;;;;0.40;0.40;;;;;;;20.66;30.59;100189.91;5054329;28;20466;-91
2022/10/01 07:06:24;;;;;;;0.50;0.50;;;;;;;20.74;30.47;100211.16;5047704;28;20028;-91
2022/10/01 07:08:50;;;;;;;2.05;0.60;;;;;;;20.59;30.55;100205.56;5067252;28;20677;-91
2022/10/01 07:11:16;;;;;;;0.40;0.40;;;;;;;20.58;30.66;100206.66;5051608;28;20437;-90
2022/10/01 07:13:42;;;;;;;0.50;0.50;;;;;;;20.51;30.58;100203.34;5049841;28;20414;-90
2022/10/01 07:16:07;;;;;;;0.57;0.55;;;;;;;20.45;30.66;100200.59;5034924;28;20535;-90
2022/10/01 07:18:33;;;;;;;1.08;0.60;;;;;;;20.38;30.60;100191.81;5045437;28;20035;-91
2022/10/01 07:20:59;;;;;;;0.80;0.60;;;;;;;20.33;30.64;100191.75;5067355;28;20077;-91
2022/10/01 07:23:24;;;;;;;0.60;0.60;;;;;;;20.20;30.81;100178.63;5033014;28;20034;-91
2022/10/01 07:25:50;;;;;;;0.40;0.40;;;;;;;20.22;30.84;100185.44;5034068;28;20492;-90
2022/10/01 07:28:18;;;;;;;0.47;0.47;;;;;;;20.24;30.89;100194.13;5051354;28;20031;-89
2022/10/01 07:31:11;;;;;;;0.70;0.40;;;;;;;20.26;31.13;100204.72;5033626;28;20575;-90
2022/10/01 07:33:40;;;;;;;0.68;0.55;;;;;;;20.25;31.05;100200.41;5066380;28;20048;-91
2022/10/01 07:36:07;;;;;;;1.90;0.40;;;;;;;20.16;30.83;100191.91;5032048;28;20504;-90
2022/10/01 07:38:35;;;;;;;0.63;0.55;;;;;;;20.12;31.10;100190.75;5034732;28;20028;-91
2022/10/01 07:41:04;;;;;;;0.55;0.50;;;;;;;20.17;31.11;100192.72;5057591;28;20033;-90
2022/10/01 07:43:30;;;;;;;0.47;0.45;;;;;;;20.08;31.03;100190.44;5045375;28;20036;-91
2022/10/01 07:45:56;;;;;;;0.40;0.40;;;;;;;20.13;31.09;100184.25;5067172;28;20495;-91
2022/10/01 07:48:23;;;;;;;0.85;0.70;;;;;;;20.07;31.37;100185.28;5049880;28;20028;-91
2022/10/01 07:50:49;;;;;;;1.52;0.50;;;;;;;20.07;31.60;100188.00;5057756;28;20458;-90
2022/10/01 07:53:15;;;;;;;0.47;0.47;;;;;;;20.15;31.33;100173.16;5034053;28;20054;-90
2022/10/01 07:55:40;;;;;;;0.77;0.50;;;;;;;20.34;31.08;100168.19;5061195;28;20389;-90
2022/10/01 07:58:06;;;;;;;0.95;0.50;;;;;;;20.55;30.91;100167.25;5067384;28;20023;-91
2022/10/01 08:00:32;;;;;;;1.02;0.45;;;;;;;20.77;30.80;100159.03;5046802;28;20396;-91
2022/10/01 08:02:58;;;;;;;0.50;0.50;;;;;;;20.97;30.62;100176.53;5033075;28;20036;-90
2022/10/01 08:05:26;;;;;;;0.50;0.50;;;;;;;20.99;30.55;100174.41;5035753;28;20021;-90
2022/10/01 08:07:52;;;;;;;0.45;0.45;;;;;;;20.95;30.65;100182.25;5062879;28;20378;-90
2022/10/01 08:10:19;;;;;;;0.50;0.50;;;;;;;20.83;30.65;100176.19;5050882;28;20028;-90
2022/10/01 08:12:44;;;;;;;0.50;0.47;;;;;;;20.77;30.88;100169.09;5052034;28;20052;-90
2022/10/01 08:15:11;;;;;;;0.85;0.43;;;;;;;20.48;31.20;100144.94;5048437;28;20028;-90
2022/10/01 08:17:37;;;;;;;0.75;0.50;;;;;;;20.41;31.26;100150.59;5063930;28;20156;-90
2022/10/01 08:20:05;;;;;;;0.38;0.38;;;;;;;20.49;31.23;100162.88;5054370;28;20051;-90
2022/10/01 08:22:31;;;;;;;0.77;0.40;;;;;;;20.44;31.29;100152.78;5041526;28;20029;-90
2022/10/01 08:24:56;;;;;;;0.50;0.50;;;;;;;20.41;31.25;100161.44;5041921;28;20024;-90
2022/10/01 08:27:25;;;;;;;0.82;0.50;;;;;;;20.34;31.54;100150.00;5033932;28;20251;-90
2022/10/01 08:29:52;;;;;;;0.75;0.60;;;;;;;20.34;31.32;100150.00;5039683;28;20119;-90
2022/10/01 08:32:17;;;;;;;0.40;0.40;;;;;;;20.31;31.36;100160.53;5066416;28;20105;-90
2022/10/01 08:34:43;;;;;;;0.40;0.40;;;;;;;20.20;31.33;100132.50;5033483;28;20489;-90
2022/10/01 08:37:13;;;;;;;0.80;0.65;;;;;;;20.21;31.59;100150.41;5065511;28;20473;-90
2022/10/01 08:39:38;;;;;;;0.65;0.57;;;;;;;20.14;31.53;100138.94;5049571;28;20369;-91
2022/10/01 08:42:13;;;;;;;0.35;0.35;;;;;;;20.14;31.57;100147.91;5056427;28;20028;-90
2022/10/01 08:44:41;;;;;;;0.60;0.55;;;;;;;20.10;31.37;100140.56;5049740;28;20249;-90
2022/10/01 08:47:24;;;;;;;0.65;0.60;;;;;;;20.14;31.76;100149.81;5067598;28;20029;-90
2022/10/01 08:50:18;;;;;;;0.60;0.60;;;;;;;20.09;31.88;100150.56;5048453;28;20562;-90
2022/10/01 08:52:58;;;;;;;1.15;0.60;;;;;;;20.00;31.87;100139.38;5046411;28;20029;-90
2022/10/01 08:55:26;;;;;;;0.50;0.50;;;;;;;20.00;31.67;100139.38;5048243;28;20032;-90
2022/10/01 08:58:03;;;;;;;0.50;0.50;;;;;;;20.00;31.87;100141.25;5066332;28;20064;-91
2022/10/01 09:00:29;;;;;;;2.75;0.63;;;;;;;19.99;31.75;100148.59;5046353;28;20033;-90
2022/10/01 09:02:56;;;;;;;0.47;0.40;;;;;;;19.97;31.81;100142.63;5047548;28;20035;-90
2022/10/01 09:05:45;;;;;;;0.50;0.50;;;;;;;19.98;31.87;100146.94;5031851;28;20553;-91
2022/10/01 09:08:42;;;;;;;1.02;0.50;;;;;;;19.93;32.07;100144.19;5061319;28;20017;-91
2022/10/01 09:11:20;;;;;;;0.75;0.50;;;;;;;19.90;32.12;100147.41;5063964;28;20025;-91
2022/10/01 09:14:14;;;;;;;1.33;0.50;;;;;;;19.92;31.88;100152.56;5043202;28;20040;-90
2022/10/01 09:17:09;;;;;;;0.50;0.50;;;;;;;19.92;31.85;100158.84;5048341;28;20017;-91
2022/10/01 09:20:14;;;;;;;0.57;0.57;;;;;;;19.87;31.97;100164.19;5037215;28;20036;-91
2022/10/01 09:22:46;;;;;;;0.65;0.50;;;;;;;19.84;32.29;100145.72;5076871;28;20075;-91
2022/10/01 09:25:31;;;;;;;0.55;0.40;;;;;;;19.84;32.29;100146.53;5044943;28;20033;-90
2022/10/01 09:28:14;;;;;;;0.65;0.47;;;;;;;19.76;32.24;100138.03;5035610;28;20050;-91
2022/10/01 09:31:07;;;;;;;0.50;0.50;;;;;;;19.85;32.33;100153.59;5033044;28;20035;-92
2022/10/01 09:33:38;;;;;;;0.77;0.60;;;;;;;19.81;32.36;100151.66;5031795;28;20090;-93
2022/10/01 09:36:26;;;;;;;0.50;0.50;;;;;;;19.84;32.57;100157.38;5043486;28;20385;-93
2022/10/01 09:38:58;;;;;;;0.57;0.57;;;;;;;19.82;32.37;100153.31;5063962;28;20033;-94
2022/10/01 09:41:24;;;;;;;1.00;0.65;;;;;;;19.80;32.48;100144.56;5031127;28;20025;-96
2022/10/01 09:43:49;;;;;;;0.85;0.60;;;;;;;19.79;32.61;100143.75;5061716;28;20405;-94
2022/10/01 09:46:16;;;;;;;0.52;0.50;;;;;;;19.76;32.28;100144.28;5051426;28;20258;-94
2022/10/01 09:48:45;;;;;;;0.50;0.50;;;;;;;19.83;32.72;100138.66;5044001;28;20029;-94
2022/10/01 09:51:43;;;;;;;0.60;0.60;;;;;;;19.76;32.86;100135.31;5065112;28;20450;-95
2022/10/01 09:54:30;;;;;;;0.85;0.60;;;;;;;19.78;32.82;100135.88;5059626;28;20037;-76
2022/10/01 09:57:10;;;;;;;0.50;0.50;;;;;;;19.70;32.96;100112.75;5068460;28;20120;-93
2022/10/01 09:59:42;;;;;;;0.90;0.60;;;;;;;19.77;32.98;100128.84;5034086;28;20145;-91
2022/10/01 10:02:24;;;;;;;0.98;0.60;;;;;;;19.70;33.20;100115.44;5036169;28;20137;-92
2022/10/01 10:05:06;;;;;;;0.80;0.50;;;;;;;19.76;32.99;100124.47;5035525;28;20039;-96
2022/10/01 10:07:33;;;;;;;0.40;0.40;;;;;;;19.77;33.02;100131.56;5048450;28;20032;-95
2022/10/01 10:10:19;;;;;;;0.70;0.52;;;;;;;19.70;33.33;100118.97;5057793;28;20203;-95
2022/10/01 10:12:45;;;;;;;0.47;0.47;;;;;;;19.67;33.14;100110.53;5058464;28;20032;-96
2022/10/01 10:15:16;;;;;;;0.40;0.40;;;;;;;19.64;33.24;100113.75;5035291;28;20028;-96
2022/10/01 10:17:43;;;;;;;0.40;0.40;;;;;;;19.72;33.06;100118.72;5033971;28;20020;-96
2022/10/01 10:20:22;;;;;;;0.60;0.60;;;;;;;19.71;33.29;100114.34;5035934;28;20033;-95
2022/10/01 10:22:47;;;;;;;1.27;0.50;;;;;;;19.66;33.07;100104.31;5053641;28;20036;-95
2022/10/01 10:25:19;;;;;;;0.63;0.40;;;;;;;19.75;33.10;100115.53;5065832;28;20512;-96
2022/10/01 10:27:58;;;;;;;0.88;0.60;;;;;;;19.74;33.12;100111.16;5051766;28;20127;-95
2022/10/01 10:30:25;;;;;;;0.70;0.60;;;;;;;19.72;33.13;100110.59;5046240;28;20044;-96
2022/10/01 10:33:00;;;;;;;1.00;0.80;;;;;;;19.69;33.18;100111.91;5054281;28;20502;-96
